Time;durP1;ratioP1;P1;durP2;ratioP2;P2;SDS_P1;SDS_P2;PMS_P1;PMS_P2;Temp;Humidity;BMP_temperature;BMP_pressure;BME280_temperature;BME280_humidity;BME280_pressure;Samples;Min_cycle;Max_cycle;Signal;HPM_P1;HPM_P2
2022/05/22 00:00:14;;;;;;;9.95;3.33;;;11.10;99.90;;;;;;4975315;28;20053;-86
2022/05/22 00:02:40;;;;;;;11.95;4.07;;;11.10;99.90;;;;;;4961560;28;20055;-86
2022/05/22 00:05:08;;;;;;;10.73;3.25;;;11.10;99.90;;;;;;4972826;28;20034;-86
2022/05/22 00:07:34;;;;;;;8.73;3.58;;;11.10;99.90;;;;;;4974505;28;20050;-86
2022/05/22 00:10:01;;;;;;;8.18;4.28;;;11.10;99.90;;;;;;4973702;28;20117;-86
2022/05/22 00:12:27;;;;;;;9.23;4.45;;;11.00;99.90;;;;;;4973931;28;20041;-86
2022/05/22 00:14:52;;;;;;;10.82;4.22;;;11.00;99.90;;;;;;4973459;28;20030;-86
2022/05/22 00:17:18;;;;;;;10.32;3.55;;;11.00;99.90;;;;;;4976037;28;20110;-86
2022/05/22 00:19:43;;;;;;;12.63;4.72;;;10.90;99.90;;;;;;4973342;28;20390;-86
2022/05/22 00:22:09;;;;;;;13.15;4.95;;;10.90;99.90;;;;;;4976007;28;20064;-86
2022/05/22 00:24:35;;;;;;;13.57;4.53;;;10.80;99.90;;;;;;4973385;28;20046;-86
2022/05/22 00:27:02;;;;;;;11.57;4.95;;;10.80;99.90;;;;;;4969246;28;20112;-86
2022/05/22 00:29:28;;;;;;;15.23;4.70;;;10.70;99.90;;;;;;4968155;28;20130;-86
2022/05/22 00:31:54;;;;;;;8.57;3.80;;;10.70;99.90;;;;;;4958123;28;20030;-86
2022/05/22 00:34:20;;;;;;;10.45;3.97;;;10.70;99.90;;;;;;4964182;28;20513;-86
2022/05/22 00:36:45;;;;;;;15.63;4.57;;;10.60;99.90;;;;;;4974898;28;20042;-86
2022/05/22 00:39:11;;;;;;;14.45;4.68;;;10.60;99.90;;;;;;4966273;28;20030;-86
2022/05/22 00:41:38;;;;;;;15.57;4.45;;;10.50;99.90;;;;;;4975762;28;20031;-86
2022/05/22 00:44:04;;;;;;;13.23;4.82;;;10.50;99.90;;;;;;4971190;28;20118;-86
2022/05/22 00:46:31;;;;;;;10.52;3.97;;;10.50;99.90;;;;;;4975533;28;20116;-86
2022/05/22 00:49:27;;;;;;;14.18;5.25;;;10.40;99.90;;;;;;4973301;28;20138;-86
2022/05/22 00:51:55;;;;;;;13.45;4.13;;;10.40;99.90;;;;;;4973500;28;20030;-86
2022/05/22 00:54:32;;;;;;;13.70;4.78;;;10.40;99.90;;;;;;4974574;28;20037;-87
2022/05/22 00:57:12;;;;;;;10.80;4.38;;;10.40;99.90;;;;;;4973801;28;20038;-86
2022/05/22 00:59:44;;;;;;;8.45;4.13;;;10.30;99.90;;;;;;4975098;28;20034;-85
2022/05/22 01:02:13;;;;;;;12.55;4.93;;;10.30;99.90;;;;;;4971554;28;20030;-86
2022/05/22 01:04:39;;;;;;;9.77;4.70;;;10.30;99.90;;;;;;4958545;28;20041;-86
2022/05/22 01:07:07;;;;;;;17.10;4.93;;;10.20;99.90;;;;;;4984972;28;20058;-86
2022/05/22 01:09:34;;;;;;;11.35;4.07;;;10.20;99.90;;;;;;4957270;28;20023;-86
2022/05/22 01:12:05;;;;;;;22.85;5.18;;;10.20;99.90;;;;;;4960822;28;20165;-86
2022/05/22 01:14:33;;;;;;;11.90;4.47;;;10.20;99.90;;;;;;4984243;28;20034;-86
2022/05/22 01:17:04;;;;;;;8.45;4.60;;;10.10;99.90;;;;;;4974262;28;20041;-86
2022/05/22 01:19:30;;;;;;;7.80;4.20;;;10.10;99.90;;;;;;4968157;28;20497;-86
2022/05/22 01:22:01;;;;;;;11.85;4.50;;;10.10;99.90;;;;;;4973249;28;20027;-86
2022/05/22 01:24:27;;;;;;;13.80;4.82;;;10.00;99.90;;;;;;4956511;28;20051;-86
2022/05/22 01:26:55;;;;;;;10.55;4.45;;;10.00;99.90;;;;;;4974145;28;20030;-86
2022/05/22 01:29:21;;;;;;;14.63;4.82;;;10.00;99.90;;;;;;4961035;28;20043;-86
2022/05/22 01:31:46;;;;;;;15.55;5.88;;;9.90;99.90;;;;;;4957419;28;20115;-86
2022/05/22 01:34:12;;;;;;;14.90;5.45;;;9.90;99.90;;;;;;4974969;28;20053;-86
2022/05/22 01:36:38;;;;;;;13.32;5.70;;;9.90;99.90;;;;;;4971627;28;20037;-86
2022/05/22 01:39:05;;;;;;;14.70;5.78;;;9.90;99.90;;;;;;4965818;28;20490;-86
2022/05/22 01:41:30;;;;;;;11.77;4.65;;;9.90;99.90;;;;;;4975300;28;20050;-85
2022/05/22 01:43:56;;;;;;;9.52;4.35;;;9.80;99.90;;;;;;4965734;28;20414;-86
2022/05/22 01:46:22;;;;;;;12.60;4.95;;;9.80;99.90;;;;;;4977573;28;20027;-86
2022/05/22 01:48:47;;;;;;;9.60;5.18;;;9.80;99.90;;;;;;4978575;28;20073;-86
2022/05/22 01:51:13;;;;;;;12.48;5.47;;;9.70;99.90;;;;;;4968068;28;20076;-86
2022/05/22 01:53:38;;;;;;;11.05;5.28;;;9.70;99.90;;;;;;4976423;28;20049;-86
2022/05/22 01:56:04;;;;;;;18.20;6.10;;;9.70;99.90;;;;;;4975009;28;20022;-86
2022/05/22 01:58:29;;;;;;;13.10;5.45;;;9.70;99.90;;;;;;4975038;28;20073;-86
2022/05/22 02:00:55;;;;;;;13.23;5.88;;;9.70;99.90;;;;;;4972195;28;20506;-86
2022/05/22 02:03:21;;;;;;;12.40;5.93;;;9.70;99.90;;;;;;4970430;28;20121;-86
2022/05/22 02:05:47;;;;;;;17.02;5.85;;;9.70;99.90;;;;;;4994377;28;20022;-86
2022/05/22 02:08:22;;;;;;;12.48;6.07;;;9.60;99.90;;;;;;4974848;28;20635;-86
2022/05/22 02:10:51;;;;;;;11.52;5.50;;;9.60;99.90;;;;;;4978164;28;20026;-86
2022/05/22 02:13:23;;;;;;;14.40;4.85;;;9.60;99.90;;;;;;4978676;28;20076;-86
2022/05/22 02:15:50;;;;;;;13.50;5.90;;;9.60;99.90;;;;;;4968294;28;20022;-86
2022/05/22 02:18:15;;;;;;;12.10;5.72;;;9.50;99.90;;;;;;4974305;28;20041;-86
2022/05/22 02:20:41;;;;;;;9.52;5.30;;;9.50;99.90;;;;;;4975427;28;20474;-86
2022/05/22 02:23:07;;;;;;;11.57;4.57;;;9.50;99.90;;;;;;4976479;28;20494;-85
2022/05/22 02:25:41;;;;;;;7.82;3.40;;;9.40;99.90;;;;;;4972701;28;20042;-86
2022/05/22 02:28:08;;;;;;;8.73;3.67;;;9.40;99.90;;;;;;4974785;28;20108;-86
2022/05/22 02:30:38;;;;;;;10.82;4.47;;;9.40;99.90;;;;;;4974660;28;20521;-86
2022/05/22 02:33:04;;;;;;;15.38;5.82;;;9.30;99.90;;;;;;4972156;28;20037;-86
2022/05/22 02:35:30;;;;;;;10.57;4.57;;;9.30;99.90;;;;;;4973322;28;20022;-87
2022/05/22 02:37:57;;;;;;;11.05;5.15;;;9.30;99.90;;;;;;4975514;28;20035;-86
2022/05/22 02:40:26;;;;;;;11.32;5.90;;;9.30;99.90;;;;;;4970984;28;20023;-86
2022/05/22 02:42:53;;;;;;;11.20;4.93;;;9.30;99.90;;;;;;4973818;28;20070;-86
2022/05/22 02:45:22;;;;;;;11.65;5.85;;;9.30;99.90;;;;;;4971796;28;20094;-86
2022/05/22 02:47:49;;;;;;;12.52;5.85;;;9.20;99.90;;;;;;4971843;28;20050;-87
2022/05/22 02:50:19;;;;;;;15.95;6.13;;;9.20;99.90;;;;;;4972318;28;20023;-86
2022/05/22 02:52:44;;;;;;;12.05;5.18;;;9.20;99.90;;;;;;4970177;28;20153;-86
2022/05/22 02:55:10;;;;;;;10.68;5.45;;;9.20;99.90;;;;;;4973096;28;20117;-86
2022/05/22 02:57:38;;;;;;;13.95;6.53;;;9.10;99.90;;;;;;4970896;28;20053;-86
2022/05/22 03:00:07;;;;;;;12.85;5.88;;;9.10;99.90;;;;;;4971953;28;20125;-85
2022/05/22 03:02:32;;;;;;;17.92;5.70;;;9.00;99.90;;;;;;4971040;28;20026;-86
2022/05/22 03:04:58;;;;;;;10.82;5.57;;;9.00;99.90;;;;;;4969083;28;20484;-86
2022/05/22 03:07:24;;;;;;;15.60;5.63;;;9.00;99.90;;;;;;4971577;28;20577;-86
2022/05/22 03:09:49;;;;;;;15.15;6.35;;;8.90;99.90;;;;;;4972092;28;20031;-86
2022/05/22 03:12:17;;;;;;;11.35;5.95;;;8.90;99.90;;;;;;4973981;28;20031;-85
2022/05/22 03:14:51;;;;;;;7.72;4.40;;;8.90;99.90;;;;;;4972725;28;20031;-86
2022/05/22 03:17:17;;;;;;;11.48;5.18;;;8.90;99.90;;;;;;4967752;28;20053;-86
2022/05/22 03:19:42;;;;;;;14.13;5.68;;;8.80;99.90;;;;;;4972836;28;20122;-85
2022/05/22 03:22:09;;;;;;;11.13;5.47;;;8.80;99.90;;;;;;4972005;28;20367;-86
2022/05/22 03:24:35;;;;;;;12.98;6.50;;;8.80;99.90;;;;;;4973784;28;20039;-86
2022/05/22 03:27:07;;;;;;;10.98;5.57;;;8.70;99.90;;;;;;4967554;28;20479;-85
2022/05/22 03:29:33;;;;;;;11.23;5.47;;;8.70;99.90;;;;;;4955466;28;20050;-86
2022/05/22 03:31:59;;;;;;;13.75;5.65;;;8.70;99.90;;;;;;4971263;28;20031;-86
2022/05/22 03:34:24;;;;;;;13.10;6.18;;;8.70;99.90;;;;;;4974019;28;20034;-87
2022/05/22 03:36:51;;;;;;;13.95;5.43;;;8.60;99.90;;;;;;4973348;28;20066;-86
2022/05/22 03:39:17;;;;;;;8.02;5.03;;;8.60;99.90;;;;;;4964251;28;20078;-86
2022/05/22 03:41:42;;;;;;;14.70;6.53;;;8.60;99.90;;;;;;4974871;28;20027;-85
2022/05/22 03:44:08;;;;;;;15.65;7.55;;;8.60;99.90;;;;;;4957361;28;20480;-86
2022/05/22 03:46:33;;;;;;;15.75;7.28;;;8.60;99.90;;;;;;4966988;28;20033;-85
2022/05/22 03:49:00;;;;;;;13.48;8.32;;;8.50;99.90;;;;;;4971397;28;20134;-86
2022/05/22 03:51:26;;;;;;;12.82;7.38;;;8.60;99.90;;;;;;4956348;28;20027;-85
2022/05/22 03:53:52;;;;;;;15.82;8.25;;;8.60;99.90;;;;;;4973281;28;20265;-86
2022/05/22 03:56:18;;;;;;;14.30;8.55;;;8.70;99.90;;;;;;4971784;28;20562;-86
2022/05/22 03:58:44;;;;;;;16.45;8.63;;;8.70;99.90;;;;;;4970308;28;20031;-85
2022/05/22 04:01:10;;;;;;;14.88;8.80;;;8.80;99.90;;;;;;4971946;28;20027;-85
2022/05/22 04:03:37;;;;;;;16.10;8.45;;;8.80;99.90;;;;;;4970147;28;20105;-85
2022/05/22 04:06:05;;;;;;;12.27;7.70;;;8.90;99.90;;;;;;4971258;28;20023;-86
2022/05/22 04:08:31;;;;;;;15.45;8.50;;;8.90;99.90;;;;;;4961714;28;20063;-86
2022/05/22 04:10:57;;;;;;;14.65;8.35;;;8.90;99.90;;;;;;4968970;28;20062;-86
2022/05/22 04:13:24;;;;;;;13.30;7.22;;;8.90;99.90;;;;;;4969461;28;20555;-85
2022/05/22 04:15:49;;;;;;;13.88;7.05;;;8.90;99.90;;;;;;4965832;28;20484;-86
2022/05/22 04:18:15;;;;;;;15.85;8.13;;;8.90;99.90;;;;;;4971408;28;20031;-86
2022/05/22 04:20:41;;;;;;;11.93;7.10;;;8.90;99.90;;;;;;4971891;28;20031;-86
2022/05/22 04:25:56;;;;;;;17.20;7.70;;;8.90;99.90;;;;;;4971409;28;20158;-87
2022/05/22 04:28:23;;;;;;;18.02;7.32;;;8.90;99.90;;;;;;4965647;28;20057;-85
2022/05/22 04:30:49;;;;;;;6.70;5.00;;;9.00;99.90;;;;;;4965989;28;20035;-87
2022/05/22 04:33:15;;;;;;;5.10;4.05;;;9.00;99.90;;;;;;4967054;28;20034;-86
2022/05/22 04:35:42;;;;;;;7.00;4.32;;;9.10;99.90;;;;;;4971959;28;20034;-86
2022/05/22 04:38:07;;;;;;;6.53;4.53;;;9.20;99.90;;;;;;4972931;28;20486;-86
2022/05/22 04:40:33;;;;;;;6.55;4.93;;;9.30;99.90;;;;;;4964447;28;20035;-86
2022/05/22 04:42:58;;;;;;;8.75;4.55;;;9.30;99.90;;;;;;4972485;28;20062;-86
2022/05/22 04:45:24;;;;;;;9.15;5.22;;;9.40;99.90;;;;;;4970676;28;20031;-86
2022/05/22 04:47:49;;;;;;;8.65;5.57;;;9.50;99.90;;;;;;4967547;28;20065;-86
2022/05/22 04:50:16;;;;;;;8.45;6.30;;;9.70;99.90;;;;;;4971412;28;20122;-86
2022/05/22 04:52:42;;;;;;;10.82;5.57;;;9.80;99.90;;;;;;4970368;28;20475;-86
2022/05/22 04:55:08;;;;;;;10.30;6.35;;;9.90;99.90;;;;;;4965127;28;20037;-86
2022/05/22 04:57:35;;;;;;;12.25;5.60;;;10.10;99.90;;;;;;4965298;28;20490;-86
2022/05/22 05:00:01;;;;;;;16.85;7.47;;;10.20;99.90;;;;;;4955546;28;20442;-86
2022/05/22 05:02:26;;;;;;;11.43;6.85;;;10.30;99.90;;;;;;4971712;28;20482;-84
2022/05/22 05:04:56;;;;;;;10.05;6.55;;;10.40;99.90;;;;;;4967405;28;20054;-86
2022/05/22 05:07:22;;;;;;;7.65;5.40;;;10.50;99.90;;;;;;4963263;28;20057;-86
2022/05/22 05:09:49;;;;;;;8.30;5.32;;;10.60;99.90;;;;;;4966677;28;20058;-85
2022/05/22 05:12:15;;;;;;;9.48;5.95;;;10.70;99.90;;;;;;4966310;28;20088;-85
2022/05/22 05:14:40;;;;;;;8.82;5.32;;;11.00;99.90;;;;;;4973109;28;20586;-86
2022/05/22 05:17:15;;;;;;;10.65;5.95;;;11.30;99.90;;;;;;4968650;28;20070;-86
2022/05/22 05:19:41;;;;;;;11.85;5.82;;;11.70;99.90;;;;;;4973173;28;20030;-86
2022/05/22 05:22:06;;;;;;;9.52;6.15;;;12.10;99.90;;;;;;4975806;28;20390;-86
2022/05/22 05:24:33;;;;;;;8.80;4.13;;;12.50;99.90;;;;;;4964184;28;20051;-85
2022/05/22 05:26:59;;;;;;;11.32;4.22;;;12.90;99.90;;;;;;4973650;28;20402;-86
2022/05/22 05:29:28;;;;;;;7.40;4.20;;;13.20;99.90;;;;;;4961311;28;20126;-85
2022/05/22 05:31:53;;;;;;;7.65;4.53;;;13.50;99.90;;;;;;4966521;23;20650;-87
2022/05/22 05:34:19;;;;;;;10.18;4.35;;;13.80;99.90;;;;;;4953574;28;20115;-87
2022/05/22 05:36:45;;;;;;;9.88;4.93;;;14.10;99.90;;;;;;4941377;29;20032;-87
2022/05/22 05:39:12;;;;;;;10.90;5.57;;;14.30;99.90;;;;;;4947599;29;20127;-86
2022/05/22 05:41:38;;;;;;;11.98;5.45;;;14.50;99.90;;;;;;4969144;28;20027;-86
2022/05/22 05:44:08;;;;;;;9.80;4.82;;;14.60;99.90;;;;;;4948203;28;20058;-86
2022/05/22 05:46:35;;;;;;;8.77;5.65;;;14.60;99.90;;;;;;4942113;28;20086;-85
2022/05/22 05:49:01;;;;;;;12.02;5.35;;;14.70;99.90;;;;;;4959754;28;20039;-86
2022/05/22 05:51:27;;;;;;;11.50;5.10;;;14.70;99.90;;;;;;4957242;28;20074;-86
2022/05/22 05:53:52;;;;;;;11.02;4.78;;;14.70;99.90;;;;;;4956408;29;20439;-86
2022/05/22 05:56:18;;;;;;;11.00;5.65;;;14.80;99.90;;;;;;4957112;28;20028;-86
2022/05/22 05:58:44;;;;;;;11.88;5.90;;;14.90;99.90;;;;;;4953335;28;20075;-86
2022/05/22 06:01:10;;;;;;;11.98;6.00;;;14.90;99.90;;;;;;4942108;28;20440;-87
2022/05/22 06:03:36;;;;;;;8.50;4.60;;;15.00;99.90;;;;;;4954466;28;20055;-86
2022/05/22 06:06:02;;;;;;;8.30;4.63;;;15.10;99.90;;;;;;4956046;29;20066;-87
2022/05/22 06:08:27;;;;;;;7.75;4.47;;;15.20;99.90;;;;;;4949403;28;20039;-86
2022/05/22 06:10:53;;;;;;;9.55;4.50;;;15.20;99.90;;;;;;4944342;29;20031;-87
2022/05/22 06:13:19;;;;;;;9.10;4.72;;;15.30;99.90;;;;;;4956358;29;20031;-88
2022/05/22 06:15:44;;;;;;;9.30;3.83;;;15.40;99.90;;;;;;4956476;29;20024;-86
2022/05/22 06:18:09;;;;;;;7.60;3.70;;;15.50;99.90;;;;;;4947514;28;20102;-86
2022/05/22 06:20:35;;;;;;;9.38;3.15;;;15.60;99.90;;;;;;4953236;29;20078;-87
2022/05/22 06:23:01;;;;;;;9.88;4.00;;;15.70;99.90;;;;;;4949308;29;20396;-86
2022/05/22 06:25:26;;;;;;;7.93;2.88;;;15.80;99.90;;;;;;4950751;29;20024;-86
2022/05/22 06:27:52;;;;;;;7.45;1.92;;;15.90;99.90;;;;;;4951466;29;20039;-86
2022/05/22 06:30:18;;;;;;;10.98;2.25;;;16.10;99.90;;;;;;4950335;28;20043;-85
2022/05/22 06:32:44;;;;;;;7.63;1.65;;;16.20;99.90;;;;;;4954708;29;20063;-85
2022/05/22 06:35:11;;;;;;;12.98;1.63;;;16.20;99.90;;;;;;4955708;29;20027;-84
2022/05/22 06:37:37;;;;;;;7.63;1.00;;;16.30;99.90;;;;;;4946853;28;20543;-86
2022/05/22 06:40:05;;;;;;;9.25;1.42;;;16.30;99.90;;;;;;4943965;29;20038;-85
2022/05/22 06:42:34;;;;;;;9.25;1.75;;;16.40;99.90;;;;;;4943775;29;20111;-84
2022/05/22 06:45:08;;;;;;;8.30;1.85;;;16.50;99.90;;;;;;4961914;28;20038;-86
2022/05/22 06:47:35;;;;;;;5.70;1.25;;;16.60;99.90;;;;;;4944512;29;20054;-86
2022/05/22 06:50:05;;;;;;;9.18;1.48;;;16.70;99.90;;;;;;4943249;29;20031;-85
2022/05/22 06:52:32;;;;;;;9.23;1.60;;;16.70;99.90;;;;;;4941998;29;20031;-86
2022/05/22 06:55:02;;;;;;;8.05;1.58;;;16.80;99.90;;;;;;4949389;29;20117;-86
2022/05/22 06:57:28;;;;;;;11.23;2.28;;;16.90;99.90;;;;;;4945407;28;20019;-85
2022/05/22 06:59:56;;;;;;;9.63;2.08;;;17.00;99.90;;;;;;4944797;28;20082;-85
2022/05/22 07:02:23;;;;;;;6.95;1.48;;;17.00;99.90;;;;;;4950450;29;20114;-85
2022/05/22 07:04:49;;;;;;;7.78;2.35;;;17.10;99.90;;;;;;4946654;29;20534;-85
2022/05/22 07:07:14;;;;;;;10.52;1.70;;;17.10;99.90;;;;;;4944646;29;20066;-85
2022/05/22 07:09:40;;;;;;;8.82;2.30;;;17.10;99.90;;;;;;4943626;29;20035;-85
2022/05/22 07:12:08;;;;;;;6.63;1.60;;;17.20;99.90;;;;;;4946654;28;20055;-86
2022/05/22 07:14:34;;;;;;;6.95;1.75;;;17.20;99.90;;;;;;4941523;28;20039;-85
2022/05/22 07:17:04;;;;;;;11.35;2.20;;;17.30;99.90;;;;;;4936670;28;20518;-84
2022/05/22 07:19:34;;;;;;;17.77;2.90;;;17.50;99.90;;;;;;4934715;28;20038;-85
2022/05/22 07:22:00;;;;;;;13.13;2.45;;;17.50;99.90;;;;;;4933371;28;20156;-85
2022/05/22 07:24:26;;;;;;;9.10;1.58;;;17.70;99.90;;;;;;4933020;28;20121;-84
2022/05/22 07:26:51;;;;;;;9.45;2.15;;;17.80;99.90;;;;;;4932122;28;20114;-85
2022/05/22 07:29:17;;;;;;;10.82;1.95;;;17.80;99.90;;;;;;4931554;29;20035;-86
2022/05/22 07:31:42;;;;;;;8.63;2.00;;;17.80;99.90;;;;;;4931837;28;20051;-86
2022/05/22 07:34:08;;;;;;;9.27;2.00;;;17.90;99.90;;;;;;4933005;28;20062;-85
2022/05/22 07:36:34;;;;;;;6.57;1.48;;;18.00;99.90;;;;;;4932962;28;20131;-86
2022/05/22 07:39:00;;;;;;;9.80;2.42;;;18.00;99.90;;;;;;4933480;28;20126;-84
2022/05/22 07:41:25;;;;;;;7.57;1.15;;;18.10;99.90;;;;;;4930913;29;20040;-85
2022/05/22 07:43:51;;;;;;;10.60;1.45;;;18.20;99.90;;;;;;4930256;28;20428;-85
2022/05/22 07:46:16;;;;;;;8.15;1.40;;;18.20;99.90;;;;;;4928524;28;20039;-86
2022/05/22 07:48:42;;;;;;;7.22;1.35;;;18.30;99.90;;;;;;4929706;28;21150;-86
2022/05/22 07:51:10;;;;;;;4.32;1.23;;;18.40;99.90;;;;;;4934713;28;20031;-85
2022/05/22 07:53:35;;;;;;;9.13;1.65;;;18.40;99.90;;;;;;4936272;28;20035;-86
2022/05/22 07:56:02;;;;;;;8.95;1.50;;;18.50;99.90;;;;;;4932373;28;20790;-86
2022/05/22 07:58:29;;;;;;;6.75;1.60;;;18.50;99.90;;;;;;4932105;28;20035;-86
2022/05/22 08:00:56;;;;;;;5.93;1.50;;;18.50;99.90;;;;;;4937318;28;20031;-85
2022/05/22 08:03:22;;;;;;;9.13;1.30;;;18.50;99.90;;;;;;4943486;28;21549;-84
2022/05/22 08:05:48;;;;;;;11.10;1.50;;;18.50;99.90;;;;;;4931274;28;20038;-85
2022/05/22 08:08:14;;;;;;;4.95;1.30;;;18.50;99.90;;;;;;4932880;29;20035;-86
2022/05/22 08:10:41;;;;;;;9.32;1.85;;;18.40;99.70;;;;;;4947702;28;20042;-84
2022/05/22 08:13:08;;;;;;;12.07;1.55;;;18.40;99.90;;;;;;4946538;28;20644;-86
2022/05/22 08:15:35;;;;;;;3.80;0.82;;;18.40;99.90;;;;;;4931540;28;20035;-87
2022/05/22 08:18:02;;;;;;;4.70;0.77;;;18.50;99.50;;;;;;4920007;29;20035;-86
2022/05/22 08:20:30;;;;;;;7.38;0.77;;;18.40;99.10;;;;;;4935849;28;20122;-86
2022/05/22 08:23:00;;;;;;;7.63;1.08;;;18.40;99.00;;;;;;4929769;28;20042;-85
2022/05/22 08:25:27;;;;;;;4.40;0.88;;;18.50;98.50;;;;;;4934983;29;20062;-84
2022/05/22 08:27:54;;;;;;;4.22;0.80;;;18.70;98.00;;;;;;4930808;28;20035;-86
2022/05/22 08:30:21;;;;;;;5.88;1.25;;;18.80;97.90;;;;;;4947808;28;20077;-86
2022/05/22 08:32:48;;;;;;;6.68;1.20;;;18.80;97.20;;;;;;4933342;28;20058;-85
2022/05/22 08:35:17;;;;;;;5.63;0.70;;;18.70;97.10;;;;;;4935750;28;20038;-86
2022/05/22 08:37:43;;;;;;;6.95;0.98;;;18.80;96.90;;;;;;4928659;28;20054;-85
2022/05/22 08:40:11;;;;;;;6.78;0.93;;;18.60;96.90;;;;;;4930239;28;20038;-85
2022/05/22 08:42:43;;;;;;;7.20;1.15;;;18.60;96.80;;;;;;4932191;28;20081;-85
2022/05/22 08:45:18;;;;;;;6.85;0.80;;;18.70;97.40;;;;;;4935039;28;20024;-85
2022/05/22 08:48:14;;;;;;;5.03;0.93;;;18.80;96.80;;;;;;4929341;28;20043;-85
2022/05/22 08:50:42;;;;;;;6.68;0.88;;;18.80;96.80;;;;;;4930713;29;20035;-85
2022/05/22 08:53:29;;;;;;;8.93;1.30;;;18.90;96.40;;;;;;4932048;28;20027;-86
2022/05/22 08:59:07;;;;;;;8.85;1.17;;;19.30;95.70;;;;;;4931445;28;20091;-86
2022/05/22 09:01:38;;;;;;;5.07;0.93;;;19.50;95.70;;;;;;4941451;28;20114;-86
2022/05/22 09:04:37;;;;;;;7.50;1.27;;;19.70;95.10;;;;;;4945183;28;20047;-86
2022/05/22 09:07:24;;;;;;;5.10;1.08;;;19.80;94.80;;;;;;4939091;29;20040;-86
2022/05/22 09:10:01;;;;;;;8.48;1.40;;;19.90;94.20;;;;;;4933992;28;20043;-85
2022/05/22 09:12:55;;;;;;;6.95;1.20;;;19.90;93.50;;;;;;4929329;28;20027;-85
2022/05/22 09:15:44;;;;;;;4.70;0.82;;;19.90;93.30;;;;;;4929795;28;20043;-86
2022/05/22 09:18:17;;;;;;;10.75;1.60;;;19.80;93.10;;;;;;4936343;28;20046;-86
2022/05/22 09:20:55;;;;;;;7.40;1.13;;;19.80;93.20;;;;;;4932154;28;20047;-86
2022/05/22 09:23:46;;;;;;;8.68;2.42;;;19.90;93.70;;;;;;4936595;29;20060;-86
2022/05/22 09:26:44;;;;;;;6.20;1.77;;;20.00;93.00;;;;;;4929152;29;20033;-86
2022/05/22 09:29:17;;;;;;;6.63;2.08;;;19.70;92.20;;;;;;4935757;28;20134;-85
2022/05/22 09:32:12;;;;;;;5.50;1.33;;;19.60;92.80;;;;;;4935315;28;20106;-85
2022/05/22 09:34:56;;;;;;;8.25;1.33;;;19.60;92.70;;;;;;4879207;28;20105;-86
2022/05/22 09:37:34;;;;;;;7.65;1.35;;;19.50;92.50;;;;;;4934987;28;20146;-85
2022/05/22 09:40:33;;;;;;;6.30;1.20;;;19.40;92.90;;;;;;4930857;29;20087;-87
2022/05/22 09:43:17;;;;;;;6.32;1.50;;;19.50;93.30;;;;;;4871558;28;20043;-87
2022/05/22 09:45:57;;;;;;;7.13;1.33;;;19.60;93.10;;;;;;4947656;28;20134;-87
2022/05/22 09:48:38;;;;;;;6.72;1.25;;;19.70;92.60;;;;;;4932923;28;20043;-87
2022/05/22 09:51:31;;;;;;;6.32;1.05;;;19.80;92.40;;;;;;4931308;28;20058;-87
2022/05/22 09:54:18;;;;;;;4.95;1.10;;;19.90;92.50;;;;;;4935260;28;20027;-88
2022/05/22 09:56:44;;;;;;;4.65;1.30;;;20.10;92.60;;;;;;4935382;29;20043;-86
2022/05/22 09:59:30;;;;;;;7.03;2.00;;;20.30;92.30;;;;;;4939578;28;20024;-86
2022/05/22 10:01:59;;;;;;;4.78;1.65;;;20.50;91.50;;;;;;4930888;28;20028;-86
2022/05/22 10:04:49;;;;;;;6.35;1.50;;;20.60;91.00;;;;;;4935497;28;20031;-87
2022/05/22 10:08:03;;;;;;;5.80;1.17;;;20.80;91.20;;;;;;4933570;28;20059;-85
2022/05/22 10:10:38;;;;;;;6.75;1.40;;;20.90;90.60;;;;;;4931442;28;20086;-87
2022/05/22 10:13:25;;;;;;;8.52;1.48;;;20.90;90.50;;;;;;4938648;28;20035;-88
2022/05/22 10:15:57;;;;;;;4.28;1.35;;;21.00;90.70;;;;;;4937682;28;20078;-88
2022/05/22 10:18:38;;;;;;;8.70;2.83;;;21.10;90.20;;;;;;4941163;28;20035;-88
2022/05/22 10:21:45;;;;;;;7.82;2.00;;;21.30;89.20;;;;;;4936418;28;20035;-88
2022/05/22 10:24:22;;;;;;;6.80;2.47;;;21.30;86.60;;;;;;4939328;28;20046;-87
2022/05/22 10:27:05;;;;;;;7.80;2.45;;;21.20;87.30;;;;;;4936566;28;20143;-86
2022/05/22 10:29:33;;;;;;;;;;;21.20;87.10;;;;;;4939106;29;20082;-87
2022/05/22 10:32:10;;;;;;;6.60;1.90;;;21.10;87.50;;;;;;4940264;28;19918;-87
2022/05/22 10:34:56;;;;;;;8.55;2.33;;;20.90;87.20;;;;;;4950256;28;20035;-87
2022/05/22 10:37:45;;;;;;;6.18;1.90;;;21.10;87.80;;;;;;4947731;28;20500;-88
2022/05/22 10:40:19;;;;;;;6.05;2.25;;;21.30;87.30;;;;;;4943499;28;20095;-88
2022/05/22 10:42:50;;;;;;;6.57;1.90;;;21.30;85.00;;;;;;4946202;29;20029;-89
2022/05/22 10:45:36;;;;;;;8.82;2.30;;;21.40;84.50;;;;;;4957142;29;20468;-89
2022/05/22 10:48:12;;;;;;;8.02;2.45;;;21.40;83.30;;;;;;4955659;29;20050;-85
2022/05/22 10:50:58;;;;;;;6.55;1.80;;;21.50;82.80;;;;;;4951037;29;20510;-86
2022/05/22 10:53:32;;;;;;;5.57;2.13;;;21.60;82.80;;;;;;4942876;29;20487;-86
2022/05/22 10:56:06;;;;;;;5.65;2.63;;;21.90;83.30;;;;;;4953992;28;20038;-84
2022/05/22 10:58:35;;;;;;;6.78;2.45;;;22.20;83.00;;;;;;4946845;29;20034;-84
2022/05/22 11:01:04;;;;;;;5.85;2.75;;;22.70;82.50;;;;;;4947730;29;20031;-86
2022/05/22 11:03:35;;;;;;;7.70;2.78;;;23.00;80.00;;;;;;4957475;29;20097;-86
2022/05/22 11:06:14;;;;;;;7.75;3.05;;;23.20;79.20;;;;;;4961149;28;20032;-85
2022/05/22 11:08:48;;;;;;;7.55;2.83;;;23.40;77.90;;;;;;4950286;29;20099;-87
2022/05/22 11:11:18;;;;;;;8.07;2.65;;;23.50;76.00;;;;;;4969929;28;20062;-86
2022/05/22 11:13:45;;;;;;;5.53;2.53;;;23.50;74.60;;;;;;4954950;29;20098;-87
2022/05/22 11:16:25;;;;;;;6.13;2.67;;;23.60;73.90;;;;;;4948503;29;20032;-87
2022/05/22 11:19:25;;;;;;;9.38;3.00;;;23.70;74.40;;;;;;4956247;28;20024;-87
2022/05/22 11:22:06;;;;;;;6.30;2.20;;;23.50;74.40;;;;;;4968249;28;20035;-87
2022/05/22 11:24:59;;;;;;;4.97;2.67;;;23.50;73.70;;;;;;4956404;28;20059;-87
2022/05/22 11:27:43;;;;;;;10.02;3.35;;;23.30;72.60;;;;;;4968982;28;20118;-85
2022/05/22 11:30:18;;;;;;;6.20;3.58;;;23.20;71.70;;;;;;4954193;28;20039;-86
2022/05/22 11:33:09;;;;;;;7.82;3.80;;;23.20;71.20;;;;;;4950951;28;20507;-86
2022/05/22 11:35:41;;;;;;;6.43;2.97;;;23.20;69.90;;;;;;4948816;28;20027;-86
2022/05/22 11:38:22;;;;;;;8.27;3.50;;;22.90;70.20;;;;;;4965894;28;20051;-86
2022/05/22 11:41:39;;;;;;;5.70;2.78;;;22.70;71.00;;;;;;4952184;28;20089;-86
2022/05/22 11:44:13;;;;;;;7.20;2.22;;;22.70;72.50;;;;;;4913125;28;20035;-86
2022/05/22 11:47:06;;;;;;;6.72;1.92;;;22.90;72.40;;;;;;4955145;29;20038;-86
2022/05/22 11:49:56;;;;;;;6.07;1.88;;;23.20;72.50;;;;;;4943421;29;20082;-86
2022/05/22 11:52:54;;;;;;;5.10;1.75;;;23.50;71.50;;;;;;4952142;28;20083;-87
2022/05/22 11:55:22;;;;;;;6.05;1.88;;;23.50;69.80;;;;;;4950170;28;20118;-87
2022/05/22 11:58:15;;;;;;;3.75;1.40;;;23.60;68.50;;;;;;4952780;29;20023;-87
2022/05/22 12:00:45;;;;;;;;;;;23.70;69.10;;;;;;4949854;29;20027;-88
2022/05/22 12:03:39;;;;;;;4.70;1.02;;;23.70;68.80;;;;;;4953455;28;19986;-87
2022/05/22 12:06:29;;;;;;;4.22;1.60;;;23.80;66.30;;;;;;4945926;28;20032;-88
2022/05/22 12:09:07;;;;;;;7.35;2.25;;;23.90;66.30;;;;;;4950296;28;20112;-88
2022/05/22 12:11:40;;;;;;;9.95;2.85;;;23.80;66.70;;;;;;4941924;29;20023;-88
2022/05/22 12:14:30;;;;;;;6.38;2.00;;;23.80;65.70;;;;;;4946334;28;20055;-89
2022/05/22 12:17:18;;;;;;;4.75;2.05;;;23.80;66.10;;;;;;4948578;28;20035;-88
2022/05/22 12:19:46;;;;;;;7.47;2.60;;;23.80;66.10;;;;;;4951391;28;20034;-88
2022/05/22 12:22:17;;;;;;;6.57;2.67;;;23.80;66.20;;;;;;4942532;29;20023;-86
2022/05/22 12:24:57;;;;;;;8.13;2.85;;;23.70;64.50;;;;;;4946352;29;20440;-87
2022/05/22 12:27:29;;;;;;;5.13;2.28;;;23.40;64.20;;;;;;4944138;29;20063;-87
2022/05/22 12:30:07;;;;;;;6.63;2.10;;;23.10;64.80;;;;;;4948017;28;20427;-87
2022/05/22 12:32:44;;;;;;;4.85;1.60;;;23.00;66.10;;;;;;4942032;28;20066;-86
2022/05/22 12:35:11;;;;;;;4.88;1.73;;;23.10;66.50;;;;;;4947891;28;20050;-85
2022/05/22 12:37:48;;;;;;;7.57;2.35;;;23.30;65.50;;;;;;4946017;28;20105;-86
2022/05/22 12:40:16;;;;;;;6.45;2.33;;;23.50;65.90;;;;;;4951808;29;20031;-86
2022/05/22 12:42:49;;;;;;;6.82;3.05;;;23.60;65.10;;;;;;4948962;28;20059;-85
2022/05/22 12:45:14;;;;;;;6.68;2.38;;;23.70;66.00;;;;;;4944364;29;20031;-86
2022/05/22 12:47:47;;;;;;;8.63;2.20;;;23.80;66.40;;;;;;4944013;28;20034;-88
2022/05/22 12:50:25;;;;;;;6.07;1.95;;;23.90;65.40;;;;;;4945950;29;20035;-87
2022/05/22 12:52:52;;;;;;;6.10;1.90;;;24.00;65.00;;;;;;4946995;29;20031;-88
2022/05/22 12:55:27;;;;;;;3.40;1.88;;;24.00;64.70;;;;;;4949449;28;20031;-88
2022/05/22 12:57:54;;;;;;;6.55;2.15;;;24.10;64.00;;;;;;4948748;29;20035;-88
2022/05/22 13:00:38;;;;;;;8.63;2.13;;;24.10;63.70;;;;;;4947341;28;20539;-88
2022/05/22 13:03:24;;;;;;;5.30;1.50;;;24.10;64.60;;;;;;4944335;28;20480;-88
2022/05/22 13:06:01;;;;;;;5.13;1.25;;;24.20;64.70;;;;;;4943838;28;20031;-87
2022/05/22 13:08:32;;;;;;;6.22;1.27;;;24.20;65.00;;;;;;4946030;29;20034;-87
2022/05/22 13:11:00;;;;;;;7.20;1.60;;;24.30;65.40;;;;;;4959949;28;20031;-88